Terminal Aerodrome Forecast
Issued by NWS

Home | Current Version | Previous Version | Text Only | Print | Product List | Glossary On
Versions: 1 2 3 4 5 6 7 8 9 10 11 12 13 14 15 16
000
FTUS41 KGYX 181120
TAFAUG
TAF
KAUG 181120Z 1812/1912 00000KT P6SM BKN250
     FM181400 VRB02KT P6SM OVC050
     FM181600 VRB03KT 3SM -SN OVC015
     FM181800 VRB03KT 1SM -SN OVC008
     FM182300 26003KT P6SM OVC005=

USA.gov is the U.S. government's official web portal to all federal, state and local government web resources and services.